createdAt,value
2023-02-18T00:00:22.312Z,39.2
2023-02-18T00:05:22.651Z,39.1
2023-02-18T00:10:22.954Z,39.1
2023-02-18T00:15:23.302Z,39.1
2023-02-18T00:20:23.631Z,39
2023-02-18T00:25:24.213Z,38.9
2023-02-18T00:30:24.866Z,38.9
2023-02-18T00:35:25.522Z,38.9
2023-02-18T00:40:25.846Z,38.8
2023-02-18T00:45:26.168Z,38.8
2023-02-18T00:50:26.551Z,38.7
2023-02-18T00:55:26.916Z,38.7
2023-02-18T01:00:27.226Z,38.7
2023-02-18T01:05:27.814Z,38.6
2023-02-18T01:10:28.167Z,38.6
2023-02-18T01:15:28.546Z,38.6
2023-02-18T01:20:28.921Z,38.5
2023-02-18T01:25:29.273Z,38.5
2023-02-18T01:30:29.603Z,38.4
2023-02-18T01:35:30.214Z,38.4
2023-02-18T01:40:30.811Z,38.4
2023-02-18T01:45:31.132Z,38.3
2023-02-18T01:50:31.672Z,38.2
2023-02-18T01:55:32.252Z,38.2
2023-02-18T02:00:32.585Z,38.2
2023-02-18T02:05:32.903Z,38.1
2023-02-18T02:10:33.221Z,38.1
2023-02-18T02:15:33.552Z,38.1
2023-02-18T02:20:33.863Z,38
2023-02-18T02:25:34.202Z,38
2023-02-18T02:30:34.527Z,38
2023-02-18T02:35:34.840Z,37.9
2023-02-18T02:40:35.132Z,37.9
2023-02-18T02:45:35.457Z,37.8
2023-02-18T02:50:35.720Z,37.8
2023-02-18T02:55:36.080Z,37.7
2023-02-18T03:00:36.564Z,37.7
2023-02-18T03:05:36.823Z,37.7
2023-02-18T03:10:37.057Z,37.6
2023-02-18T03:15:37.333Z,37.6
2023-02-18T03:20:37.631Z,37.6
2023-02-18T03:25:37.888Z,37.6
2023-02-18T03:30:38.170Z,37.5
2023-02-18T03:35:38.471Z,37.5
2023-02-18T03:40:38.740Z,37.4
2023-02-18T03:45:39.274Z,37.4
2023-02-18T03:50:39.568Z,37.4
2023-02-18T03:55:40.062Z,37.3
2023-02-18T04:00:40.291Z,37.3
2023-02-18T04:05:40.605Z,37.2
2023-02-18T04:10:40.856Z,37.2
2023-02-18T04:15:41.132Z,37.2
2023-02-18T04:20:41.398Z,37.1
2023-02-18T04:25:41.624Z,37.1
2023-02-18T04:30:41.989Z,37.1
2023-02-18T04:35:42.309Z,37
2023-02-18T04:40:42.821Z,37
2023-02-18T04:45:43.076Z,36.9
2023-02-18T04:50:43.353Z,36.9
2023-02-18T04:55:43.637Z,36.9
2023-02-18T05:00:43.910Z,36.8
2023-02-18T05:05:44.203Z,36.8
2023-02-18T05:10:44.514Z,36.8
2023-02-18T05:15:44.823Z,36.7
2023-02-18T05:20:45.091Z,36.7
2023-02-18T05:25:45.387Z,36.7
2023-02-18T05:30:45.703Z,36.6
2023-02-18T05:35:45.991Z,36.6
2023-02-18T05:40:46.519Z,36.6
2023-02-18T05:45:46.792Z,36.6
2023-02-18T05:50:47.076Z,36.5
2023-02-18T05:55:47.368Z,36.4
2023-02-18T06:00:47.620Z,36.4
2023-02-18T06:05:48.186Z,36.4
2023-02-18T06:10:48.452Z,36.4
2023-02-18T06:15:49.018Z,36.3
2023-02-18T06:20:49.297Z,36.3
2023-02-18T06:25:49.572Z,36.2
2023-02-18T06:30:49.828Z,36.2
2023-02-18T06:35:50.387Z,36.2
2023-02-18T06:40:50.903Z,36.2
2023-02-18T06:45:51.209Z,36.1
2023-02-18T06:50:51.461Z,36.1
2023-02-18T06:55:51.773Z,36.1
2023-02-18T07:00:52.034Z,36.1
2023-02-18T07:05:52.347Z,36
2023-02-18T07:10:52.642Z,36
2023-02-18T07:15:52.948Z,35.9
2023-02-18T07:20:53.211Z,35.9
2023-02-18T07:25:53.735Z,35.9
2023-02-18T07:30:54.338Z,35.9
2023-02-18T07:35:54.620Z,35.8
2023-02-18T07:40:54.894Z,35.8
2023-02-18T07:45:55.200Z,35.7
2023-02-18T07:50:55.770Z,35.7
2023-02-18T07:55:56.093Z,35.7
2023-02-18T08:00:56.632Z,35.7
2023-02-18T08:05:56.884Z,35.6
2023-02-18T08:10:57.842Z,35.6
2023-02-18T08:15:58.921Z,35.6
2023-02-18T08:20:59.178Z,35.6
2023-02-18T08:25:59.824Z,35.6
2023-02-18T08:31:00.510Z,35.5
2023-02-18T08:36:01.096Z,35.5
2023-02-18T08:41:01.593Z,35.4
2023-02-18T08:46:02.088Z,35.4
2023-02-18T08:51:02.562Z,35.4
2023-02-18T08:56:03.051Z,35.4
2023-02-18T09:01:03.341Z,35.3
2023-02-18T09:06:03.594Z,35.3
2023-02-18T09:11:04.086Z,35.2
2023-02-18T09:16:04.697Z,35.2
2023-02-18T09:21:04.987Z,35.2
2023-02-18T09:26:05.267Z,35.2
2023-02-18T09:31:05.975Z,35.1
2023-02-18T09:36:06.557Z,35.1
2023-02-18T09:41:07.442Z,35.1
2023-02-18T09:46:08.216Z,35.1
2023-02-18T09:51:08.777Z,35.1
2023-02-18T09:56:09.153Z,35
2023-02-18T10:01:09.985Z,35
2023-02-18T10:06:10.788Z,34.9
2023-02-18T10:11:11.197Z,34.9
2023-02-18T10:16:12.063Z,34.9
2023-02-18T10:21:12.646Z,34.9
2023-02-18T10:26:12.842Z,34.8
2023-02-18T10:31:13.601Z,34.8
2023-02-18T10:36:13.898Z,34.8
2023-02-18T10:41:14.145Z,34.7
2023-02-18T10:46:14.466Z,34.7
2023-02-18T10:51:14.734Z,34.7
2023-02-18T10:56:15.203Z,34.7
2023-02-18T11:01:15.648Z,34.3
2023-02-18T11:06:17.568Z,33.2
2023-02-18T11:11:19.684Z,33
2023-02-18T11:16:21.628Z,32.9
2023-02-18T11:21:23.486Z,32.9
2023-02-18T11:26:25.552Z,32.9
2023-02-18T11:31:27.726Z,32.9
2023-02-18T11:36:29.606Z,32.9
2023-02-18T11:41:31.440Z,32.8
2023-02-18T11:46:33.517Z,32.8
2023-02-18T11:51:35.359Z,32.7
2023-02-18T11:56:37.215Z,32.7
2023-02-18T12:01:39.105Z,32.7
2023-02-18T12:06:39.289Z,32.7
2023-02-18T12:11:41.384Z,32.7
2023-02-18T12:16:43.283Z,32.7
2023-02-18T12:21:45.442Z,32.7
2023-02-18T12:26:48.066Z,32.6
2023-02-18T12:31:49.907Z,32.6
2023-02-18T12:36:51.977Z,32.5
2023-02-18T12:41:53.802Z,32.5
2023-02-18T12:46:56.043Z,32.4
2023-02-18T12:51:58.067Z,32.4
2023-02-18T12:57:00.147Z,32.4
2023-02-18T13:02:01.986Z,32.4
2023-02-18T13:07:03.796Z,32.4
2023-02-18T13:12:05.644Z,32.4
2023-02-18T13:17:07.787Z,32.3
2023-02-18T13:22:09.680Z,32.3
2023-02-18T13:27:11.794Z,32.2
2023-02-18T13:32:13.806Z,32.2
2023-02-18T13:37:15.606Z,32.2
2023-02-18T13:42:17.383Z,32.2
2023-02-18T13:47:19.466Z,32.2
2023-02-18T13:52:21.515Z,32.2
2023-02-18T13:57:23.381Z,32.2
2023-02-18T14:02:25.497Z,32.1
2023-02-18T14:07:27.348Z,32.1
2023-02-18T14:12:29.376Z,31.4
2023-02-18T14:17:31.182Z,31.3
2023-02-18T14:22:32.956Z,31.2
2023-02-18T14:27:34.724Z,31.2
2023-02-18T14:32:36.721Z,31.1
2023-02-18T14:37:38.485Z,31
2023-02-18T14:42:40.258Z,31
2023-02-18T14:47:42.291Z,30.9
2023-02-18T14:52:44.365Z,30.9
2023-02-18T14:57:46.165Z,30.9
2023-02-18T15:02:47.954Z,30.9
2023-02-18T15:07:49.755Z,30.8
2023-02-18T15:12:51.532Z,30.8
2023-02-18T15:17:53.565Z,30.8
2023-02-18T15:22:55.605Z,30.8
2023-02-18T15:27:57.377Z,30.8
2023-02-18T15:32:59.466Z,30.8
2023-02-18T15:38:01.251Z,30.8
2023-02-18T15:43:03.255Z,30.8
2023-02-18T15:48:05.278Z,30.7
2023-02-18T15:53:07.518Z,30.7
2023-02-18T15:58:09.357Z,30.7
2023-02-18T16:03:11.124Z,30.6
2023-02-18T16:08:12.894Z,30.6
2023-02-18T16:13:14.733Z,30.6
2023-02-18T16:18:16.572Z,30.6
2023-02-18T16:23:18.549Z,30.6
2023-02-18T16:28:20.373Z,30.6
2023-02-18T16:33:22.427Z,30.6
2023-02-18T16:38:24.226Z,30.5
2023-02-18T16:43:25.976Z,30.5
2023-02-18T16:48:28.031Z,30.5
2023-02-18T16:53:30.029Z,30.4
2023-02-18T16:58:32.112Z,30.4
2023-02-18T17:03:33.916Z,30.4
2023-02-18T17:08:35.703Z,30.4
2023-02-18T17:13:37.492Z,30.4
2023-02-18T17:18:39.529Z,30.4
2023-02-18T17:23:41.322Z,30.4
2023-02-18T17:28:43.108Z,30.4
2023-02-18T17:33:45.137Z,30.3
2023-02-18T17:38:46.946Z,30.4
2023-02-18T17:43:48.737Z,30.3
2023-02-18T17:48:51.660Z,30.3
2023-02-18T17:53:53.435Z,30.3
2023-02-18T17:58:55.484Z,30.3
2023-02-18T18:03:57.265Z,30.3
2023-02-18T18:08:59.026Z,30.3
2023-02-18T18:14:00.815Z,30.3
2023-02-18T18:19:02.860Z,31.4
2023-02-18T18:24:04.681Z,34.2
2023-02-18T18:29:05.244Z,36.7
2023-02-18T18:34:05.820Z,39.4
2023-02-18T18:39:06.229Z,41.2
2023-02-18T18:44:06.835Z,41.4
2023-02-18T18:49:07.240Z,42.5
2023-02-18T18:54:07.779Z,43.6
2023-02-18T18:59:08.543Z,43.6
2023-02-18T19:04:09.023Z,43.4
2023-02-18T19:09:10.862Z,43.4
2023-02-18T19:14:11.517Z,43.4
2023-02-18T19:19:12.021Z,43.3
2023-02-18T19:24:12.515Z,43.3
2023-02-18T19:29:13.039Z,43.3
2023-02-18T19:34:13.731Z,43.3
2023-02-18T19:39:14.441Z,43.2
2023-02-18T19:44:14.912Z,43.2
2023-02-18T19:49:15.773Z,43.1
2023-02-18T19:54:16.258Z,43.1
2023-02-18T19:59:16.911Z,43.1
2023-02-18T20:04:17.493Z,43.1
2023-02-18T20:09:18.012Z,43
2023-02-18T20:14:19.549Z,43
2023-02-18T20:19:20.285Z,42.9
2023-02-18T20:24:20.756Z,42.9
2023-02-18T20:29:21.493Z,42.9
2023-02-18T20:34:21.942Z,42.9
2023-02-18T20:39:22.405Z,42.8
2023-02-18T20:44:22.842Z,42.7
2023-02-18T20:49:23.290Z,42.7
2023-02-18T20:54:23.822Z,42.7
2023-02-18T20:59:24.671Z,42.7
2023-02-18T21:04:25.172Z,42.6
2023-02-18T21:09:25.695Z,42.6
2023-02-18T21:14:26.248Z,42.6
2023-02-18T21:19:26.705Z,42.5
2023-02-18T21:24:27.136Z,42.4
2023-02-18T21:29:27.915Z,42.4
2023-02-18T21:34:28.356Z,42.4
2023-02-18T21:39:28.819Z,42.3
2023-02-18T21:44:41.606Z,42.2
2023-02-18T21:49:42.269Z,42.2
2023-02-18T21:54:42.751Z,42.2
2023-02-18T21:59:43.429Z,42.1
2023-02-18T22:04:43.841Z,42.1
2023-02-18T22:09:46.090Z,42.1
2023-02-18T22:14:48.031Z,42
2023-02-18T22:19:48.718Z,42
2023-02-18T22:24:49.376Z,41.5
2023-02-18T22:29:49.739Z,41.2
2023-02-18T22:34:50.165Z,41.2
2023-02-18T22:39:50.534Z,41.1
2023-02-18T22:44:50.872Z,41.1
2023-02-18T22:49:51.284Z,41
2023-02-18T22:54:52.506Z,40.9
2023-02-18T22:59:53.849Z,40.9
2023-02-18T23:04:54.316Z,40.9
2023-02-18T23:09:54.771Z,40.8
2023-02-18T23:14:55.183Z,40.8
2023-02-18T23:19:55.794Z,40.7
2023-02-18T23:24:56.248Z,40.6
2023-02-18T23:29:56.682Z,40.6
2023-02-18T23:34:57.086Z,40.5
2023-02-18T23:39:57.467Z,40.4
2023-02-18T23:44:57.902Z,40.4
2023-02-18T23:49:58.287Z,40.4
2023-02-18T23:54:58.903Z,40.2
2023-02-18T23:59:59.304Z,40.2
